createdAt,value
2022-10-31T00:01:31.227Z,11.64
2022-10-31T00:03:58.707Z,11.64
2022-10-31T00:06:26.223Z,11.65
2022-10-31T00:08:57.446Z,11.67
2022-10-31T00:11:25.454Z,11.67
2022-10-31T00:13:53.194Z,11.69
2022-10-31T00:16:25.102Z,11.70
2022-10-31T00:19:01.034Z,11.69
2022-10-31T00:21:29.927Z,11.68
2022-10-31T00:23:58.484Z,11.66
2022-10-31T00:26:26.139Z,11.68
2022-10-31T00:28:53.592Z,11.68
2022-10-31T00:31:21.052Z,11.67
2022-10-31T00:33:48.504Z,11.66
2022-10-31T00:36:18.221Z,11.63
2022-10-31T00:38:46.702Z,11.63
2022-10-31T00:41:16.353Z,11.59
2022-10-31T00:43:45.067Z,11.57
2022-10-31T00:46:13.572Z,11.55
2022-10-31T00:48:41.445Z,11.55
2022-10-31T00:51:09.567Z,11.51
2022-10-31T00:53:37.120Z,11.49
2022-10-31T00:56:04.908Z,11.44
2022-10-31T00:58:32.525Z,11.46
2022-10-31T01:01:00.196Z,11.45
2022-10-31T01:03:31.222Z,11.37
2022-10-31T01:06:16.912Z,11.39
2022-10-31T01:08:44.500Z,11.34
2022-10-31T01:11:18.440Z,11.30
2022-10-31T01:13:46.902Z,11.20
2022-10-31T01:16:18.008Z,11.23
2022-10-31T01:18:45.943Z,11.21
2022-10-31T01:21:25.105Z,11.14
2022-10-31T01:23:55.015Z,11.13
2022-10-31T01:26:34.428Z,11.04
2022-10-31T01:29:06.328Z,10.97
2022-10-31T01:31:39.491Z,10.91
2022-10-31T01:34:07.829Z,10.80
2022-10-31T01:36:39.928Z,10.76
2022-10-31T01:39:10.548Z,10.75
2022-10-31T01:41:41.318Z,10.70
2022-10-31T01:44:17.862Z,10.65
2022-10-31T01:47:05.964Z,10.58
2022-10-31T01:49:39.565Z,10.53
2022-10-31T01:52:32.406Z,10.48
2022-10-31T01:55:07.057Z,10.44
2022-10-31T01:57:37.339Z,10.39
2022-10-31T02:00:09.956Z,10.33
2022-10-31T02:02:38.109Z,10.31
2022-10-31T02:05:09.842Z,10.26
2022-10-31T02:08:00.585Z,10.23
2022-10-31T02:10:29.420Z,10.19
2022-10-31T02:13:00.457Z,10.15
2022-10-31T02:15:28.430Z,10.09
2022-10-31T02:17:56.144Z,10.10
2022-10-31T02:20:26.932Z,10.05
2022-10-31T02:23:25.378Z,10.06
2022-10-31T02:26:10.762Z,10.04
2022-10-31T02:29:02.057Z,9.97
2022-10-31T02:31:50.681Z,9.90
2022-10-31T02:34:18.061Z,9.86
2022-10-31T02:36:58.726Z,9.85
2022-10-31T02:39:34.029Z,9.85
2022-10-31T02:42:50.873Z,9.79
2022-10-31T02:45:37.059Z,9.64
2022-10-31T02:48:14.108Z,9.64
2022-10-31T02:50:46.272Z,9.61
2022-10-31T02:53:16.932Z,9.67
2022-10-31T02:55:51.066Z,9.67
2022-10-31T02:58:23.333Z,9.73
2022-10-31T03:01:13.925Z,9.74
2022-10-31T03:03:57.047Z,9.67
2022-10-31T03:07:07.171Z,9.69
2022-10-31T03:09:59.171Z,9.71
2022-10-31T03:12:30.465Z,9.71
2022-10-31T03:15:34.301Z,9.71
2022-10-31T03:18:17.661Z,9.71
2022-10-31T03:20:55.493Z,9.71
2022-10-31T03:23:24.922Z,9.68
2022-10-31T03:25:55.864Z,9.68
2022-10-31T03:28:30.576Z,9.69
2022-10-31T03:31:02.269Z,9.67
2022-10-31T03:33:42.577Z,9.67
2022-10-31T03:36:13.441Z,9.68
2022-10-31T03:38:43.375Z,9.68
2022-10-31T03:41:15.945Z,9.69
2022-10-31T03:43:53.716Z,9.71
2022-10-31T03:46:21.617Z,9.66
2022-10-31T03:48:49.554Z,9.71
2022-10-31T03:51:20.975Z,9.69
2022-10-31T03:54:22.768Z,9.65
2022-10-31T03:57:05.637Z,9.65
2022-10-31T03:59:46.853Z,9.64
2022-10-31T04:02:18.962Z,9.64
2022-10-31T04:04:48.358Z,9.59
2022-10-31T04:07:17.134Z,9.59
2022-10-31T04:09:48.393Z,9.57
2022-10-31T04:12:18.506Z,9.54
2022-10-31T04:14:49.836Z,9.54
2022-10-31T04:17:20.917Z,9.48
2022-10-31T04:19:48.437Z,9.45
2022-10-31T04:22:15.950Z,9.41
2022-10-31T04:24:43.455Z,9.42
2022-10-31T04:27:13.474Z,9.45
2022-10-31T04:29:41.103Z,9.45
2022-10-31T04:32:08.621Z,9.46
2022-10-31T04:34:36.096Z,9.46
2022-10-31T04:37:03.568Z,9.42
2022-10-31T04:39:31.028Z,9.37
2022-10-31T04:41:58.482Z,9.35
2022-10-31T04:44:25.929Z,9.34
2022-10-31T04:46:53.360Z,9.35
2022-10-31T04:49:20.806Z,9.35
2022-10-31T04:51:48.263Z,9.35
2022-10-31T04:54:15.741Z,9.33
2022-10-31T04:56:43.221Z,9.32
2022-10-31T04:59:10.678Z,9.30
2022-10-31T05:01:38.285Z,9.26
2022-10-31T05:04:05.828Z,9.27
2022-10-31T05:06:33.264Z,9.30
2022-10-31T05:09:00.726Z,9.32
2022-10-31T05:11:28.152Z,9.28
2022-10-31T05:13:55.608Z,9.30
2022-10-31T05:16:23.040Z,9.25
2022-10-31T05:18:50.495Z,9.21
2022-10-31T05:21:17.953Z,9.17
2022-10-31T05:23:47.592Z,9.14
2022-10-31T05:26:16.135Z,9.08
2022-10-31T05:28:43.573Z,9.10
2022-10-31T05:31:11.051Z,9.13
2022-10-31T05:33:38.529Z,9.09
2022-10-31T05:36:06.393Z,9.04
2022-10-31T05:38:33.851Z,9.06
2022-10-31T05:41:02.068Z,9.06
2022-10-31T05:43:30.140Z,9.04
2022-10-31T05:45:58.235Z,9.05
2022-10-31T05:48:25.720Z,9.07
2022-10-31T05:50:53.187Z,9.04
2022-10-31T05:53:20.705Z,9.05
2022-10-31T05:55:48.545Z,8.98
2022-10-31T05:58:16.117Z,9.03
2022-10-31T06:00:43.541Z,9.04
2022-10-31T06:03:11.796Z,9.02
2022-10-31T06:05:39.346Z,9.06
2022-10-31T06:08:07.133Z,9.10
2022-10-31T06:10:34.617Z,9.15
2022-10-31T06:13:02.142Z,9.21
2022-10-31T06:15:29.618Z,9.23
2022-10-31T06:18:05.337Z,9.29
2022-10-31T06:20:33.967Z,9.31
2022-10-31T06:23:02.266Z,9.36
2022-10-31T06:25:30.490Z,9.38
2022-10-31T06:27:58.316Z,9.42
2022-10-31T06:30:25.795Z,9.43
2022-10-31T06:32:53.404Z,9.45
2022-10-31T06:35:20.947Z,9.40
2022-10-31T06:37:56.017Z,9.49
2022-10-31T06:40:23.817Z,9.48
2022-10-31T06:43:02.076Z,9.40
2022-10-31T06:45:30.440Z,9.52
2022-10-31T06:50:46.222Z,9.52
2022-10-31T06:53:15.146Z,9.50
2022-10-31T06:55:43.275Z,9.56
2022-10-31T06:58:12.047Z,9.59
2022-10-31T07:00:39.612Z,9.59
2022-10-31T07:03:14.586Z,9.61
2022-10-31T07:05:42.183Z,9.61
2022-10-31T07:08:13.274Z,9.62
2022-10-31T07:10:42.865Z,9.62
2022-10-31T07:13:15.148Z,9.63
2022-10-31T07:15:43.241Z,9.65
2022-10-31T07:18:12.715Z,9.60
2022-10-31T07:20:40.472Z,9.62
2022-10-31T07:23:07.934Z,9.64
2022-10-31T07:25:35.400Z,9.72
2022-10-31T07:28:03.228Z,9.75
2022-10-31T07:30:31.391Z,9.71
2022-10-31T07:32:59.291Z,9.76
2022-10-31T07:35:29.327Z,9.79
2022-10-31T07:37:57.290Z,9.71
2022-10-31T07:40:26.449Z,9.77
2022-10-31T07:42:55.114Z,9.84
2022-10-31T07:45:22.930Z,9.86
2022-10-31T07:47:52.488Z,9.97
2022-10-31T07:50:34.720Z,10.00
2022-10-31T07:53:10.446Z,10.11
2022-10-31T07:55:38.969Z,10.12
2022-10-31T07:58:08.875Z,10.11
2022-10-31T08:00:37.773Z,10.20
2022-10-31T08:03:10.899Z,10.27
2022-10-31T08:05:39.390Z,10.32
2022-10-31T08:08:07.353Z,10.38
2022-10-31T08:10:36.143Z,10.45
2022-10-31T08:13:13.631Z,10.53
2022-10-31T08:15:43.109Z,10.56
2022-10-31T08:18:15.852Z,10.59
2022-10-31T08:20:44.705Z,10.68
2022-10-31T08:23:13.915Z,10.76
2022-10-31T08:25:42.817Z,10.80
2022-10-31T08:28:12.772Z,10.84
2022-10-31T08:30:41.339Z,10.88
2022-10-31T08:33:13.194Z,10.94
2022-10-31T08:35:41.286Z,10.92
2022-10-31T08:38:11.365Z,10.95
2022-10-31T08:40:39.103Z,10.96
2022-10-31T08:43:14.960Z,10.95
2022-10-31T08:45:43.501Z,11.01
2022-10-31T08:48:16.633Z,11.01
2022-10-31T08:50:45.817Z,11.03
2022-10-31T08:53:16.147Z,11.01
2022-10-31T08:55:45.192Z,10.95
2022-10-31T08:58:18.234Z,11.00
2022-10-31T09:00:47.484Z,11.08
2022-10-31T09:03:18.565Z,11.20
2022-10-31T09:05:46.812Z,11.27
2022-10-31T09:08:16.882Z,11.32
2022-10-31T09:10:45.600Z,11.41
2022-10-31T09:13:15.225Z,11.62
2022-10-31T09:15:45.524Z,11.84
2022-10-31T09:18:14.834Z,12.04
2022-10-31T09:20:43.684Z,12.19
2022-10-31T09:23:14.146Z,12.31
2022-10-31T09:25:47.591Z,12.46
2022-10-31T09:28:20.933Z,12.56
2022-10-31T09:30:50.319Z,12.62
2022-10-31T09:33:18.231Z,12.56
2022-10-31T09:35:45.944Z,12.68
2022-10-31T09:38:16.016Z,12.80
2022-10-31T09:40:45.330Z,12.89
2022-10-31T09:43:30.619Z,12.90
2022-10-31T09:46:07.445Z,12.86
2022-10-31T09:48:48.155Z,12.97
2022-10-31T09:51:22.241Z,13.08
2022-10-31T09:53:55.982Z,13.05
2022-10-31T09:56:25.294Z,13.09
2022-10-31T09:58:56.945Z,13.11
2022-10-31T10:01:30.428Z,13.21
2022-10-31T10:04:04.913Z,13.35
2022-10-31T10:06:40.317Z,13.38
2022-10-31T10:09:11.304Z,13.43
2022-10-31T10:11:39.251Z,13.50
2022-10-31T10:14:37.253Z,13.59
2022-10-31T10:17:29.645Z,13.71
2022-10-31T10:20:24.223Z,13.89
2022-10-31T10:23:03.909Z,14.02
2022-10-31T10:25:42.757Z,14.05
2022-10-31T10:28:28.031Z,14.05
2022-10-31T10:31:02.434Z,14.01
2022-10-31T10:33:38.816Z,14.15
2022-10-31T10:36:16.760Z,14.29
2022-10-31T10:38:56.207Z,14.46
2022-10-31T10:41:29.326Z,14.31
2022-10-31T10:43:59.602Z,14.51
2022-10-31T10:46:52.857Z,14.56
2022-10-31T10:49:30.313Z,14.40
2022-10-31T10:52:35.279Z,14.52
2022-10-31T10:55:14.960Z,14.77
2022-10-31T10:57:57.800Z,14.80
2022-10-31T11:00:33.948Z,14.78
2022-10-31T11:03:01.981Z,14.74
2022-10-31T11:05:45.926Z,14.65
2022-10-31T11:08:27.452Z,14.76
2022-10-31T11:11:06.160Z,14.70
2022-10-31T11:13:35.420Z,14.61
2022-10-31T11:16:06.623Z,14.97
2022-10-31T11:18:41.974Z,15.02
2022-10-31T11:21:23.487Z,15.29
2022-10-31T11:23:50.909Z,15.40
2022-10-31T11:26:22.121Z,15.54
2022-10-31T11:28:59.872Z,15.53
2022-10-31T11:31:29.417Z,15.67
2022-10-31T11:34:05.828Z,15.78
2022-10-31T11:36:37.380Z,15.80
2022-10-31T11:39:07.658Z,15.69
2022-10-31T11:41:39.423Z,15.76
2022-10-31T11:44:12.473Z,15.78
2022-10-31T11:46:43.519Z,15.50
2022-10-31T11:49:34.741Z,15.50
2022-10-31T11:52:33.104Z,15.51
2022-10-31T11:55:04.039Z,15.38
2022-10-31T11:57:45.392Z,15.15
2022-10-31T12:03:25.421Z,15.36
2022-10-31T12:06:02.394Z,15.38
2022-10-31T12:08:33.503Z,15.34
2022-10-31T12:11:25.519Z,15.39
2022-10-31T12:14:03.652Z,15.30
2022-10-31T12:16:55.468Z,15.45
2022-10-31T12:19:31.533Z,15.42
2022-10-31T12:22:10.788Z,15.45
2022-10-31T12:24:58.469Z,15.39
2022-10-31T12:28:02.187Z,15.38
2022-10-31T12:30:40.819Z,15.54
2022-10-31T12:33:38.356Z,15.57
2022-10-31T12:36:34.024Z,15.78
2022-10-31T12:39:11.984Z,15.64
2022-10-31T12:41:47.923Z,15.66
2022-10-31T12:44:31.132Z,15.70
2022-10-31T12:47:33.903Z,15.85
2022-10-31T12:50:20.154Z,15.85
2022-10-31T12:52:53.292Z,15.88
2022-10-31T12:55:48.230Z,15.93
2022-10-31T12:58:33.637Z,16.13
2022-10-31T13:01:17.007Z,16.27
2022-10-31T13:03:58.285Z,15.94
2022-10-31T13:06:42.005Z,15.79
2022-10-31T13:09:17.607Z,15.95
2022-10-31T13:11:50.777Z,16.11
2022-10-31T13:14:29.528Z,16.10
2022-10-31T13:16:58.140Z,16.00
2022-10-31T13:19:25.608Z,16.06
2022-10-31T13:22:02.469Z,16.16
2022-10-31T13:24:41.471Z,16.16
2022-10-31T13:27:24.359Z,16.09
2022-10-31T13:29:57.926Z,16.02
2022-10-31T13:32:27.258Z,16.02
2022-10-31T13:34:59.749Z,16.05
2022-10-31T13:37:38.861Z,15.97
2022-10-31T13:40:24.398Z,15.98
2022-10-31T13:43:01.695Z,16.00
2022-10-31T13:45:30.290Z,15.97
2022-10-31T13:48:01.282Z,16.06
2022-10-31T13:50:34.746Z,16.03
2022-10-31T13:53:19.285Z,15.97
2022-10-31T13:55:49.914Z,15.93
2022-10-31T13:58:30.390Z,15.94
2022-10-31T14:01:23.043Z,15.98
2022-10-31T14:04:19.223Z,15.97
2022-10-31T14:06:55.440Z,15.94
2022-10-31T14:09:33.837Z,15.88
2022-10-31T14:12:26.892Z,15.94
2022-10-31T14:14:59.179Z,15.79
2022-10-31T14:17:33.769Z,15.66
2022-10-31T14:20:05.044Z,15.74
2022-10-31T14:22:37.470Z,15.78
2022-10-31T14:25:33.569Z,15.76
2022-10-31T14:28:04.965Z,15.78
2022-10-31T14:30:33.412Z,15.75
2022-10-31T14:33:04.531Z,15.67
2022-10-31T14:35:58.122Z,15.71
2022-10-31T14:38:43.893Z,15.74
2022-10-31T14:41:30.773Z,15.78
2022-10-31T14:44:25.681Z,15.67
2022-10-31T14:47:00.742Z,15.68
2022-10-31T14:49:47.520Z,15.69
2022-10-31T14:52:19.169Z,15.71
2022-10-31T14:54:53.964Z,15.70
2022-10-31T14:57:27.033Z,15.74
2022-10-31T15:00:02.595Z,15.71
2022-10-31T15:02:39.791Z,15.60
2022-10-31T15:05:12.221Z,15.62
2022-10-31T15:08:00.133Z,15.58
2022-10-31T15:10:33.040Z,15.58
2022-10-31T15:13:20.407Z,15.59
2022-10-31T15:15:52.301Z,15.50
2022-10-31T15:18:22.553Z,15.50
2022-10-31T15:20:51.864Z,15.56
2022-10-31T15:23:28.941Z,15.49
2022-10-31T15:26:03.626Z,15.49
2022-10-31T15:28:32.872Z,15.45
2022-10-31T15:31:05.023Z,15.45
2022-10-31T15:33:39.217Z,15.45
2022-10-31T15:36:08.989Z,15.42
2022-10-31T15:38:38.389Z,15.44
2022-10-31T15:41:24.361Z,15.39
2022-10-31T15:43:52.644Z,15.42
2022-10-31T15:46:20.386Z,15.40
2022-10-31T15:48:49.808Z,15.44
2022-10-31T15:51:17.552Z,15.41
2022-10-31T15:53:54.220Z,15.48
2022-10-31T15:56:26.361Z,15.36
2022-10-31T15:58:54.714Z,15.39
2022-10-31T16:01:23.653Z,15.38
2022-10-31T16:04:21.708Z,15.34
2022-10-31T16:07:00.932Z,15.26
2022-10-31T16:09:28.740Z,15.29
2022-10-31T16:12:00.416Z,15.20
2022-10-31T16:14:32.657Z,15.18
2022-10-31T16:17:00.763Z,15.18
2022-10-31T16:19:32.486Z,15.08
2022-10-31T16:22:12.859Z,15.08
2022-10-31T16:24:48.263Z,15.01
2022-10-31T16:27:26.676Z,15.03
2022-10-31T16:29:54.781Z,14.95
2022-10-31T16:32:34.334Z,14.91
2022-10-31T16:35:02.738Z,14.86
2022-10-31T16:37:30.204Z,14.84
2022-10-31T16:39:57.680Z,14.83
2022-10-31T16:42:25.603Z,14.81
2022-10-31T16:44:53.216Z,14.82
2022-10-31T16:47:23.409Z,14.81
2022-10-31T16:49:54.422Z,14.81
2022-10-31T16:52:22.041Z,14.80
2022-10-31T16:54:49.833Z,14.84
2022-10-31T16:57:22.370Z,14.83
2022-10-31T16:59:52.233Z,14.84
2022-10-31T17:02:20.156Z,14.80
2022-10-31T17:04:49.670Z,14.78
2022-10-31T17:07:19.738Z,14.74
2022-10-31T17:09:47.242Z,14.74
2022-10-31T17:12:22.085Z,14.68
2022-10-31T17:14:53.043Z,14.62
2022-10-31T17:17:20.502Z,14.59
2022-10-31T17:19:47.983Z,14.54
2022-10-31T17:22:16.578Z,14.53
2022-10-31T17:24:44.156Z,14.52
2022-10-31T17:27:11.641Z,14.48
2022-10-31T17:29:39.176Z,14.39
2022-10-31T17:32:06.960Z,14.43
2022-10-31T17:34:34.634Z,14.41
2022-10-31T17:37:02.141Z,14.39
2022-10-31T17:39:29.642Z,14.33
2022-10-31T17:41:57.148Z,14.33
2022-10-31T17:44:24.586Z,14.29
2022-10-31T17:46:52.076Z,14.25
2022-10-31T17:49:19.633Z,14.16
2022-10-31T17:51:47.146Z,14.18
2022-10-31T17:54:18.383Z,14.19
2022-10-31T17:56:45.841Z,14.17
2022-10-31T17:59:13.342Z,14.03
2022-10-31T18:01:40.934Z,14.13
2022-10-31T18:04:08.448Z,14.11
2022-10-31T18:06:35.937Z,14.10
2022-10-31T18:09:05.694Z,14.10
2022-10-31T18:11:33.984Z,14.07
2022-10-31T18:14:01.656Z,14.01
2022-10-31T18:16:29.205Z,13.96
2022-10-31T18:19:01.664Z,13.89
2022-10-31T18:21:30.378Z,13.88
2022-10-31T18:23:59.366Z,13.86
2022-10-31T18:26:29.265Z,13.86
2022-10-31T18:28:56.804Z,13.81
2022-10-31T18:31:25.705Z,13.84
2022-10-31T18:33:54.913Z,13.82
2022-10-31T18:36:22.540Z,13.78
2022-10-31T18:38:50.024Z,13.76
2022-10-31T18:41:17.912Z,13.79
2022-10-31T18:43:45.394Z,13.79
2022-10-31T18:46:17.792Z,13.79
2022-10-31T18:48:46.889Z,13.80
2022-10-31T18:51:17.987Z,13.81
2022-10-31T18:53:55.544Z,13.75
2022-10-31T18:56:24.002Z,13.79
2022-10-31T18:58:52.121Z,13.79
2022-10-31T19:01:23.774Z,13.75
2022-10-31T19:03:56.291Z,13.75
2022-10-31T19:06:25.278Z,13.73
2022-10-31T19:08:59.144Z,13.72
2022-10-31T19:11:26.967Z,13.72
2022-10-31T19:13:54.494Z,13.67
2022-10-31T19:16:21.993Z,13.62
2022-10-31T19:18:49.517Z,13.48
2022-10-31T19:21:18.801Z,13.58
2022-10-31T19:23:46.804Z,13.53
2022-10-31T19:26:15.052Z,13.50
2022-10-31T19:28:43.104Z,13.50
2022-10-31T19:31:11.273Z,13.45
2022-10-31T19:33:39.108Z,13.43
2022-10-31T19:36:14.467Z,13.40
2022-10-31T19:38:47.225Z,13.39
2022-10-31T19:41:22.361Z,13.36
2022-10-31T19:43:50.302Z,13.35
2022-10-31T19:46:22.658Z,13.32
2022-10-31T19:48:55.807Z,13.27
2022-10-31T19:51:23.305Z,13.27
2022-10-31T19:53:52.408Z,13.25
2022-10-31T19:56:25.149Z,13.19
2022-10-31T19:58:53.180Z,13.11
2022-10-31T20:01:23.571Z,13.15
2022-10-31T20:03:52.427Z,13.14
2022-10-31T20:06:27.552Z,13.13
2022-10-31T20:08:56.624Z,13.09
2022-10-31T20:11:26.058Z,13.10
2022-10-31T20:13:56.532Z,13.04
2022-10-31T20:16:24.967Z,13.09
2022-10-31T20:18:54.030Z,13.08
2022-10-31T20:21:24.740Z,13.10
2022-10-31T20:24:06.175Z,13.08
2022-10-31T20:26:35.071Z,13.12
2022-10-31T20:29:03.812Z,13.12
2022-10-31T20:31:34.349Z,13.08
2022-10-31T20:34:01.854Z,13.11
2022-10-31T20:36:30.853Z,13.14
2022-10-31T20:38:59.240Z,13.08
2022-10-31T20:41:27.324Z,13.09
2022-10-31T20:43:54.884Z,13.07
2022-10-31T20:46:24.958Z,13.08
2022-10-31T20:48:53.654Z,13.03
2022-10-31T20:51:23.700Z,13.00
2022-10-31T20:53:56.397Z,13.03
2022-10-31T20:56:25.976Z,13.02
2022-10-31T20:58:56.208Z,13.01
2022-10-31T21:01:27.005Z,13.04
2022-10-31T21:03:54.835Z,13.09
2022-10-31T21:06:24.088Z,13.11
2022-10-31T21:08:53.750Z,13.13
2022-10-31T21:11:24.467Z,13.10
2022-10-31T21:13:52.656Z,13.12
2022-10-31T21:16:25.569Z,13.10
2022-10-31T21:18:53.777Z,13.08
2022-10-31T21:21:33.547Z,13.08
2022-10-31T21:24:07.570Z,13.08
2022-10-31T21:26:37.951Z,13.06
2022-10-31T21:29:06.855Z,13.00
2022-10-31T21:31:36.132Z,13.00
2022-10-31T21:34:03.777Z,13.01
2022-10-31T21:36:31.276Z,13.00
2022-10-31T21:38:58.776Z,12.96
2022-10-31T21:41:26.766Z,12.98
2022-10-31T21:43:55.340Z,12.98
2022-10-31T21:46:34.893Z,12.99
2022-10-31T21:49:04.656Z,13.00
2022-10-31T21:51:34.795Z,13.00
2022-10-31T21:54:20.582Z,13.06
2022-10-31T21:56:48.572Z,13.07
2022-10-31T21:59:16.192Z,13.10
2022-10-31T22:01:43.804Z,13.12
2022-10-31T22:04:11.581Z,13.14
2022-10-31T22:06:39.480Z,13.13
2022-10-31T22:09:09.102Z,13.21
2022-10-31T22:11:36.978Z,13.21
2022-10-31T22:14:05.004Z,13.21
2022-10-31T22:16:35.740Z,13.19
2022-10-31T22:19:05.637Z,13.19
2022-10-31T22:21:39.522Z,13.14
2022-10-31T22:24:08.000Z,13.15
2022-10-31T22:26:35.929Z,13.23
2022-10-31T22:29:06.384Z,13.20
2022-10-31T22:31:35.154Z,13.28
2022-10-31T22:34:02.696Z,13.32
2022-10-31T22:36:31.701Z,13.38
2022-10-31T22:39:00.313Z,13.42
2022-10-31T22:41:30.581Z,13.44
2022-10-31T22:43:59.339Z,13.47
2022-10-31T22:46:30.036Z,13.50
2022-10-31T22:49:03.178Z,13.51
2022-10-31T22:51:33.834Z,13.52
2022-10-31T22:54:01.652Z,13.57
2022-10-31T22:56:32.223Z,13.61
2022-10-31T22:59:01.011Z,13.65
2022-10-31T23:01:31.964Z,13.67
2022-10-31T23:04:00.175Z,13.67
2022-10-31T23:06:30.096Z,13.65
2022-10-31T23:08:57.886Z,13.60
2022-10-31T23:11:28.421Z,13.56
2022-10-31T23:14:09.158Z,13.52
2022-10-31T23:16:51.017Z,13.49
2022-10-31T23:19:29.890Z,13.46
2022-10-31T23:22:00.947Z,13.44
2022-10-31T23:24:40.132Z,13.28
2022-10-31T23:27:15.088Z,13.40
2022-10-31T23:29:48.794Z,13.37
2022-10-31T23:32:22.381Z,13.35
2022-10-31T23:34:52.040Z,13.34
2022-10-31T23:37:23.078Z,13.29
2022-10-31T23:39:51.044Z,13.29
2022-10-31T23:42:19.722Z,13.27
2022-10-31T23:44:47.580Z,13.26
2022-10-31T23:47:15.853Z,13.21
2022-10-31T23:49:43.585Z,13.20
2022-10-31T23:52:12.102Z,13.08
2022-10-31T23:54:40.123Z,13.19
2022-10-31T23:57:07.682Z,13.18
2022-10-31T23:59:35.282Z,13.17
